createdAt,value
2023-04-19T00:01:55.065Z,3.51
2023-04-19T00:04:21.756Z,3.46
2023-04-19T00:06:48.447Z,3.49
2023-04-19T00:09:14.654Z,3.50
2023-04-19T00:11:40.857Z,3.55
2023-04-19T00:14:07.069Z,3.62
2023-04-19T00:16:33.287Z,3.62
2023-04-19T00:18:59.534Z,3.62
2023-04-19T00:21:25.762Z,3.67
2023-04-19T00:23:52.048Z,3.66
2023-04-19T00:26:18.264Z,3.53
2023-04-19T00:28:44.486Z,3.48
2023-04-19T00:31:10.728Z,3.50
2023-04-19T00:33:36.955Z,3.53
2023-04-19T00:36:03.167Z,3.49
2023-04-19T00:38:29.376Z,3.46
2023-04-19T00:40:55.565Z,3.48
2023-04-19T00:43:21.790Z,3.52
2023-04-19T00:45:48.137Z,3.35
2023-04-19T00:48:14.383Z,3.33
2023-04-19T00:50:40.885Z,3.32
2023-04-19T00:53:07.462Z,3.34
2023-04-19T00:55:33.662Z,3.31
2023-04-19T00:57:59.953Z,3.35
2023-04-19T01:00:26.222Z,3.38
2023-04-19T01:02:52.504Z,3.35
2023-04-19T01:05:18.997Z,3.34
2023-04-19T01:07:45.211Z,3.35
2023-04-19T01:10:11.428Z,3.32
2023-04-19T01:12:37.647Z,3.26
2023-04-19T01:15:03.935Z,3.24
2023-04-19T01:17:31.452Z,3.15
2023-04-19T01:20:03.993Z,3.09
2023-04-19T01:22:30.203Z,3.13
2023-04-19T01:24:56.429Z,3.22
2023-04-19T01:27:22.625Z,3.31
2023-04-19T01:29:48.844Z,3.32
2023-04-19T01:32:15.135Z,3.34
2023-04-19T01:34:41.358Z,3.32
2023-04-19T01:37:07.566Z,3.37
2023-04-19T01:39:33.771Z,3.48
2023-04-19T01:41:59.960Z,3.54
2023-04-19T01:44:26.163Z,3.51
2023-04-19T01:46:52.407Z,3.53
2023-04-19T01:49:18.650Z,3.58
2023-04-19T01:51:45.131Z,3.64
2023-04-19T01:54:11.333Z,3.66
2023-04-19T01:56:37.542Z,3.77
2023-04-19T01:59:03.823Z,3.84
2023-04-19T02:01:30.009Z,3.92
2023-04-19T02:03:56.916Z,3.94
2023-04-19T02:06:23.200Z,4.01
2023-04-19T02:08:49.408Z,4.10
2023-04-19T02:11:15.643Z,4.08
2023-04-19T02:13:41.917Z,4.06
2023-04-19T02:16:08.253Z,4.09
2023-04-19T02:18:34.518Z,4.05
2023-04-19T02:21:00.732Z,4.04
2023-04-19T02:23:26.981Z,3.98
2023-04-19T02:25:53.183Z,4.03
2023-04-19T02:28:19.391Z,4.05
2023-04-19T02:30:45.590Z,4.09
2023-04-19T02:33:11.804Z,4.17
2023-04-19T02:35:38.103Z,4.20
2023-04-19T02:38:04.302Z,4.28
2023-04-19T02:40:30.707Z,4.25
2023-04-19T02:42:56.915Z,4.38
2023-04-19T02:45:23.119Z,4.34
2023-04-19T02:47:49.383Z,4.24
2023-04-19T02:50:16.080Z,4.15
2023-04-19T02:52:42.294Z,4.12
2023-04-19T02:55:08.701Z,4.13
2023-04-19T02:57:34.908Z,4.23
2023-04-19T03:00:01.136Z,4.29
2023-04-19T03:02:27.497Z,4.42
2023-04-19T03:04:53.785Z,4.42
2023-04-19T03:07:19.981Z,4.45
2023-04-19T03:09:46.190Z,4.51
2023-04-19T03:12:12.391Z,4.50
2023-04-19T03:14:38.593Z,4.43
2023-04-19T03:17:04.787Z,4.47
2023-04-19T03:19:30.996Z,4.49
2023-04-19T03:21:57.190Z,4.40
2023-04-19T03:24:34.370Z,4.40
2023-04-19T03:27:02.625Z,4.40
2023-04-19T03:29:28.834Z,4.32
2023-04-19T03:31:55.041Z,4.17
2023-04-19T03:34:21.264Z,4.20
2023-04-19T03:36:47.462Z,4.28
2023-04-19T03:39:13.657Z,4.40
2023-04-19T03:41:39.884Z,4.32
2023-04-19T03:44:06.091Z,4.27
2023-04-19T03:46:32.342Z,4.14
2023-04-19T03:48:58.777Z,4.16
2023-04-19T03:51:24.987Z,4.26
2023-04-19T03:53:51.213Z,4.33
2023-04-19T03:56:17.445Z,4.34
2023-04-19T03:58:43.675Z,4.34
2023-04-19T04:01:17.246Z,4.44
2023-04-19T04:03:43.754Z,4.41
2023-04-19T04:06:10.077Z,4.51
2023-04-19T04:08:36.293Z,4.54
2023-04-19T04:11:02.711Z,4.44
2023-04-19T04:13:28.921Z,4.39
2023-04-19T04:15:55.168Z,4.27
2023-04-19T04:18:21.403Z,4.44
2023-04-19T04:20:47.648Z,4.44
2023-04-19T04:23:13.866Z,4.46
2023-04-19T04:25:40.167Z,4.44
2023-04-19T04:28:06.386Z,4.53
2023-04-19T04:30:32.864Z,4.52
2023-04-19T04:32:59.186Z,4.62
2023-04-19T04:35:25.448Z,4.62
2023-04-19T04:37:51.754Z,4.82
2023-04-19T04:40:17.963Z,5.09
2023-04-19T04:42:44.174Z,5.45
2023-04-19T04:45:10.385Z,5.51
2023-04-19T04:47:36.597Z,5.59
2023-04-19T04:50:03.162Z,5.69
2023-04-19T04:52:29.368Z,5.78
2023-04-19T04:54:55.642Z,6.63
2023-04-19T04:57:21.844Z,6.57
2023-04-19T04:59:48.064Z,6.80
2023-04-19T05:02:14.711Z,7.18
2023-04-19T05:04:41.030Z,7.27
2023-04-19T05:07:07.417Z,7.33
2023-04-19T05:09:33.630Z,7.32
2023-04-19T05:11:59.850Z,7.34
2023-04-19T05:14:26.056Z,7.55
2023-04-19T05:16:52.286Z,7.55
2023-04-19T05:19:18.523Z,8.14
2023-04-19T05:21:44.729Z,8.74
2023-04-19T05:24:10.949Z,9.11
2023-04-19T05:26:37.156Z,9.00
2023-04-19T05:29:03.373Z,8.60
2023-04-19T05:31:29.605Z,8.30
2023-04-19T05:33:55.889Z,8.59
2023-04-19T05:36:22.095Z,8.58
2023-04-19T05:38:48.333Z,8.09
2023-04-19T05:41:15.116Z,7.65
2023-04-19T05:43:41.324Z,8.08
2023-04-19T05:46:07.565Z,8.03
2023-04-19T05:48:33.796Z,7.86
2023-04-19T05:51:00.025Z,8.37
2023-04-19T05:53:26.247Z,9.07
2023-04-19T05:55:52.462Z,9.03
2023-04-19T05:58:18.679Z,8.92
2023-04-19T06:00:45.021Z,8.99
2023-04-19T06:03:11.345Z,9.27
2023-04-19T06:05:37.677Z,9.40
2023-04-19T06:08:03.964Z,9.80
2023-04-19T06:10:40.416Z,9.85
2023-04-19T06:13:15.138Z,9.83
2023-04-19T06:15:41.384Z,9.86
2023-04-19T06:18:07.633Z,10.15
2023-04-19T06:20:33.904Z,9.59
2023-04-19T06:23:00.113Z,9.63
2023-04-19T06:25:26.339Z,9.37
2023-04-19T06:27:52.547Z,9.70
2023-04-19T06:30:21.791Z,9.85
2023-04-19T06:32:48.077Z,9.85
2023-04-19T06:35:14.551Z,9.53
2023-04-19T06:37:40.768Z,9.49
2023-04-19T06:40:07.515Z,9.51
2023-04-19T06:42:39.795Z,9.67
2023-04-19T06:45:06.398Z,9.39
2023-04-19T06:47:34.997Z,9.80
2023-04-19T06:50:01.895Z,9.29
2023-04-19T06:52:28.647Z,9.41
2023-04-19T06:54:54.867Z,9.61
2023-04-19T06:57:21.072Z,9.76
2023-04-19T06:59:47.317Z,9.61
2023-04-19T07:02:13.754Z,9.77
2023-04-19T07:04:40.265Z,10.21
2023-04-19T07:07:06.548Z,10.09
2023-04-19T07:09:32.756Z,9.87
2023-04-19T07:11:58.959Z,9.71
2023-04-19T07:14:25.476Z,9.87
2023-04-19T07:16:52.719Z,10.06
2023-04-19T07:19:19.054Z,9.73
2023-04-19T07:21:45.256Z,9.40
2023-04-19T07:24:11.477Z,9.75
2023-04-19T07:26:37.689Z,10.03
2023-04-19T07:29:03.932Z,9.89
2023-04-19T07:31:30.133Z,9.72
2023-04-19T07:33:56.370Z,9.87
2023-04-19T07:36:22.589Z,10.46
2023-04-19T07:38:48.854Z,10.23
2023-04-19T07:41:15.159Z,9.95
2023-04-19T07:43:41.381Z,9.84
2023-04-19T07:46:13.995Z,9.95
2023-04-19T07:48:40.229Z,9.96
2023-04-19T07:51:13.023Z,10.11
2023-04-19T07:53:39.400Z,10.06
2023-04-19T07:56:06.460Z,10.43
2023-04-19T07:58:32.721Z,10.69
2023-04-19T08:00:58.967Z,10.17
2023-04-19T08:03:25.454Z,10.22
2023-04-19T08:05:51.928Z,10.66
2023-04-19T08:08:18.216Z,10.77
2023-04-19T08:10:44.446Z,10.36
2023-04-19T08:13:10.685Z,10.29
2023-04-19T08:16:20.434Z,10.53
2023-04-19T08:18:23.124Z,10.70
2023-04-19T08:20:49.339Z,10.59
2023-04-19T08:23:22.789Z,10.57
2023-04-19T08:25:52.182Z,10.68
2023-04-19T08:28:18.483Z,10.75
2023-04-19T08:30:44.722Z,10.95
2023-04-19T08:33:11.048Z,10.84
2023-04-19T08:35:37.847Z,10.63
2023-04-19T08:38:04.437Z,10.59
2023-04-19T08:40:30.906Z,10.64
2023-04-19T08:42:57.382Z,10.49
2023-04-19T08:45:28.179Z,10.27
2023-04-19T08:48:00.962Z,10.38
2023-04-19T08:50:33.160Z,10.51
2023-04-19T08:53:12.342Z,10.52
2023-04-19T08:56:04.297Z,10.42
2023-04-19T09:01:03.817Z,11.04
2023-04-19T09:03:30.213Z,10.92
2023-04-19T09:05:56.711Z,10.76
2023-04-19T09:08:23.857Z,10.61
2023-04-19T09:10:59.774Z,10.89
2023-04-19T09:13:26.106Z,11.04
2023-04-19T09:15:52.428Z,10.68
2023-04-19T09:18:18.668Z,10.81
2023-04-19T09:20:44.950Z,11.13
2023-04-19T09:23:11.925Z,10.85
2023-04-19T09:25:59.258Z,10.91
2023-04-19T09:28:24.656Z,10.69
2023-04-19T09:31:02.298Z,10.57
2023-04-19T09:33:37.330Z,10.81
2023-04-19T09:36:03.643Z,10.98
2023-04-19T09:38:29.853Z,10.93
2023-04-19T09:41:05.801Z,10.95
2023-04-19T09:43:57.679Z,10.90
2023-04-19T09:46:30.865Z,11.34
2023-04-19T09:49:17.176Z,11.13
2023-04-19T09:51:47.788Z,11.09
2023-04-19T09:54:14.374Z,11.52
2023-04-19T09:56:40.607Z,11.65
2023-04-19T09:59:17.523Z,11.46
2023-04-19T10:01:56.565Z,11.04
2023-04-19T10:04:33.334Z,10.93
2023-04-19T10:07:29.174Z,11.08
2023-04-19T10:09:59.937Z,11.35
2023-04-19T10:12:52.281Z,11.03
2023-04-19T10:15:17.710Z,10.95
2023-04-19T10:17:43.952Z,11.44
2023-04-19T10:20:10.866Z,11.39
2023-04-19T10:22:37.084Z,12.04
2023-04-19T10:25:13.197Z,11.69
2023-04-19T10:27:40.032Z,11.44
2023-04-19T10:30:07.616Z,11.73
2023-04-19T10:32:37.722Z,11.40
2023-04-19T10:35:07.564Z,11.70
2023-04-19T10:37:33.789Z,11.27
2023-04-19T10:40:00.012Z,11.36
2023-04-19T10:42:42.272Z,11.44
2023-04-19T10:45:27.328Z,11.50
2023-04-19T10:47:53.625Z,11.84
2023-04-19T10:50:19.886Z,12.22
2023-04-19T10:52:46.095Z,11.94
2023-04-19T10:55:14.992Z,11.96
2023-04-19T10:57:59.988Z,11.63
2023-04-19T11:00:26.339Z,12.23
2023-04-19T11:02:52.721Z,12.38
2023-04-19T11:05:20.389Z,12.15
2023-04-19T11:07:46.660Z,12.60
2023-04-19T11:10:13.072Z,12.48
2023-04-19T11:12:41.932Z,12.29
2023-04-19T11:15:08.343Z,13.03
2023-04-19T11:17:34.588Z,13.04
2023-04-19T11:20:01.757Z,13.05
2023-04-19T11:22:54.140Z,12.68
2023-04-19T11:25:21.267Z,12.75
2023-04-19T11:27:48.298Z,12.64
2023-04-19T11:30:15.254Z,12.28
2023-04-19T11:32:45.158Z,12.61
2023-04-19T11:35:11.397Z,12.69
2023-04-19T11:37:37.882Z,12.33
2023-04-19T11:40:05.078Z,12.79
2023-04-19T11:42:31.700Z,12.09
2023-04-19T11:44:57.931Z,12.37
2023-04-19T11:47:24.222Z,12.23
2023-04-19T11:49:50.515Z,12.23
2023-04-19T11:52:23.473Z,12.22
2023-04-19T11:54:50.374Z,11.90
2023-04-19T11:57:26.125Z,12.09
2023-04-19T12:00:02.247Z,11.78
2023-04-19T12:02:28.523Z,11.81
2023-04-19T12:04:54.868Z,12.17
2023-04-19T12:07:21.138Z,11.96
2023-04-19T12:09:48.598Z,12.25
2023-04-19T12:12:19.530Z,12.30
2023-04-19T12:14:51.594Z,12.62
2023-04-19T12:17:17.826Z,12.44
2023-04-19T12:19:47.146Z,12.60
2023-04-19T12:22:14.025Z,12.84
2023-04-19T12:24:40.253Z,13.03
2023-04-19T12:27:06.471Z,12.85
2023-04-19T12:29:33.620Z,12.84
2023-04-19T12:32:00.095Z,12.75
2023-04-19T12:34:26.346Z,12.51
2023-04-19T12:36:52.560Z,12.32
2023-04-19T12:39:18.810Z,12.20
2023-04-19T12:41:45.037Z,12.04
2023-04-19T12:44:11.233Z,12.23
2023-04-19T12:46:37.563Z,12.44
2023-04-19T12:49:03.862Z,12.46
2023-04-19T12:51:30.140Z,12.51
2023-04-19T12:53:56.345Z,12.82
2023-04-19T12:56:22.555Z,12.30
2023-04-19T12:58:48.765Z,12.33
2023-04-19T13:01:15.022Z,12.23
2023-04-19T13:03:41.414Z,12.31
2023-04-19T13:06:07.774Z,12.46
2023-04-19T13:08:44.743Z,12.26
2023-04-19T13:11:13.503Z,12.47
2023-04-19T13:13:39.712Z,12.69
2023-04-19T13:16:06.040Z,12.76
2023-04-19T13:18:32.283Z,12.40
2023-04-19T13:20:58.493Z,12.27
2023-04-19T13:23:24.697Z,12.44
2023-04-19T13:25:50.918Z,12.37
2023-04-19T13:28:17.127Z,12.13
2023-04-19T13:30:43.340Z,12.11
2023-04-19T13:33:09.625Z,12.30
2023-04-19T13:35:35.867Z,12.41
2023-04-19T13:38:02.070Z,12.27
2023-04-19T13:40:28.283Z,12.35
2023-04-19T13:42:54.498Z,12.18
2023-04-19T13:45:20.720Z,11.81
2023-04-19T13:47:46.937Z,11.64
2023-04-19T13:50:13.276Z,11.76
2023-04-19T13:52:39.549Z,11.69
2023-04-19T13:55:05.806Z,11.83
2023-04-19T13:57:32.046Z,12.04
2023-04-19T13:59:58.268Z,11.80
2023-04-19T14:02:24.714Z,11.89
2023-04-19T14:04:51.079Z,11.92
2023-04-19T14:07:17.434Z,12.21
2023-04-19T14:09:43.693Z,12.10
2023-04-19T14:12:09.914Z,11.86
2023-04-19T14:14:36.133Z,11.74
2023-04-19T14:17:02.334Z,12.20
2023-04-19T14:19:28.525Z,11.55
2023-04-19T14:21:55.229Z,11.66
2023-04-19T14:24:21.457Z,11.82
2023-04-19T14:26:54.455Z,12.00
2023-04-19T14:29:33.357Z,11.97
2023-04-19T14:32:05.054Z,11.65
2023-04-19T14:34:36.771Z,11.70
2023-04-19T14:37:02.993Z,11.44
2023-04-19T14:39:29.206Z,11.10
2023-04-19T14:41:57.114Z,11.06
2023-04-19T14:44:23.526Z,10.95
2023-04-19T14:46:49.744Z,10.87
2023-04-19T14:49:16.151Z,10.75
2023-04-19T14:51:42.988Z,10.81
2023-04-19T14:54:09.179Z,10.83
2023-04-19T14:56:37.366Z,10.72
2023-04-19T14:59:04.765Z,10.60
2023-04-19T15:01:31.050Z,10.61
2023-04-19T15:03:57.654Z,10.53
2023-04-19T15:06:24.017Z,10.38
2023-04-19T15:08:50.221Z,10.18
2023-04-19T15:11:16.432Z,10.24
2023-04-19T15:13:42.628Z,10.67
2023-04-19T15:16:08.914Z,11.19
2023-04-19T15:18:35.419Z,11.41
2023-04-19T15:21:04.893Z,11.33
2023-04-19T15:23:31.107Z,10.85
2023-04-19T15:25:57.324Z,10.74
2023-04-19T15:28:23.903Z,10.58
2023-04-19T15:30:59.876Z,10.54
2023-04-19T15:33:26.079Z,10.44
2023-04-19T15:35:52.506Z,10.46
2023-04-19T15:38:18.719Z,10.46
2023-04-19T15:40:44.924Z,10.55
2023-04-19T15:43:11.130Z,10.38
2023-04-19T15:45:37.341Z,10.30
2023-04-19T15:48:03.631Z,10.37
2023-04-19T15:50:29.946Z,10.36
2023-04-19T15:52:56.196Z,10.30
2023-04-19T15:55:22.394Z,10.29
2023-04-19T15:57:48.623Z,10.28
2023-04-19T16:00:15.342Z,10.17
2023-04-19T16:02:41.797Z,10.20
2023-04-19T16:05:08.269Z,10.00
2023-04-19T16:07:34.494Z,10.03
2023-04-19T16:10:00.685Z,9.87
2023-04-19T16:12:27.076Z,9.88
2023-04-19T16:14:53.282Z,9.78
2023-04-19T16:17:19.512Z,9.75
2023-04-19T16:19:45.716Z,9.61
2023-04-19T16:22:11.932Z,9.60
2023-04-19T16:24:38.147Z,9.57
2023-04-19T16:27:04.396Z,9.59
2023-04-19T16:29:30.645Z,9.59
2023-04-19T16:31:56.961Z,9.54
2023-04-19T16:34:23.202Z,9.53
2023-04-19T16:36:49.408Z,9.61
2023-04-19T16:39:15.993Z,9.67
2023-04-19T16:41:42.432Z,9.68
2023-04-19T16:44:08.639Z,9.66
2023-04-19T16:46:34.923Z,9.64
2023-04-19T16:49:01.233Z,9.58
2023-04-19T16:51:27.446Z,9.57
2023-04-19T16:53:53.776Z,9.52
2023-04-19T16:56:19.984Z,9.45
2023-04-19T16:58:46.273Z,9.38
2023-04-19T17:01:12.931Z,9.29
2023-04-19T17:03:39.352Z,9.27
2023-04-19T17:06:05.944Z,9.20
2023-04-19T17:08:32.356Z,9.12
2023-04-19T17:10:58.573Z,9.05
2023-04-19T17:13:24.769Z,9.03
2023-04-19T17:15:51.027Z,8.93
2023-04-19T17:18:17.270Z,8.94
2023-04-19T17:20:43.477Z,9.05
2023-04-19T17:23:09.674Z,9.01
2023-04-19T17:25:35.884Z,8.95
2023-04-19T17:28:02.103Z,8.91
2023-04-19T17:30:28.303Z,8.98
2023-04-19T17:32:54.607Z,9.06
2023-04-19T17:35:20.822Z,9.06
2023-04-19T17:37:47.049Z,9.04
2023-04-19T17:40:13.266Z,9.07
2023-04-19T17:42:39.504Z,9.08
2023-04-19T17:45:05.909Z,9.06
2023-04-19T17:47:32.124Z,9.15
2023-04-19T17:50:08.145Z,9.21
2023-04-19T17:52:34.592Z,9.12
2023-04-19T17:55:00.788Z,9.20
2023-04-19T17:57:26.993Z,9.11
2023-04-19T17:59:53.234Z,9.17
2023-04-19T18:02:19.564Z,9.18
2023-04-19T18:04:46.629Z,9.25
2023-04-19T18:07:12.893Z,9.22
2023-04-19T18:09:39.104Z,9.23
2023-04-19T18:12:05.378Z,9.36
2023-04-19T18:14:31.838Z,9.30
2023-04-19T18:16:58.070Z,9.28
2023-04-19T18:19:24.261Z,9.20
2023-04-19T18:21:50.470Z,9.21
2023-04-19T18:24:16.677Z,9.22
2023-04-19T18:26:42.911Z,9.13
2023-04-19T18:29:09.346Z,9.09
2023-04-19T18:31:35.599Z,9.06
2023-04-19T18:34:01.831Z,9.01
2023-04-19T18:36:28.138Z,8.97
2023-04-19T18:38:54.679Z,8.85
2023-04-19T18:41:20.991Z,8.67
2023-04-19T18:44:00.783Z,8.36
2023-04-19T18:46:33.385Z,7.90
2023-04-19T18:48:59.611Z,7.55
2023-04-19T18:51:25.822Z,7.40
2023-04-19T18:53:52.048Z,7.32
2023-04-19T18:56:19.106Z,7.33
2023-04-19T18:58:45.455Z,7.37
2023-04-19T19:01:11.674Z,7.51
2023-04-19T19:04:06.180Z,7.52
2023-04-19T19:06:24.439Z,7.60
2023-04-19T19:08:50.742Z,7.61
2023-04-19T19:11:47.186Z,7.50
2023-04-19T19:14:03.109Z,7.15
2023-04-19T19:16:31.033Z,7.06
2023-04-19T19:18:57.434Z,6.92
2023-04-19T19:21:23.648Z,6.77
2023-04-19T19:23:49.854Z,6.69
2023-04-19T19:26:16.065Z,6.66
2023-04-19T19:28:42.275Z,6.66
2023-04-19T19:31:08.880Z,6.69
2023-04-19T19:33:35.121Z,6.72
2023-04-19T19:36:01.331Z,6.69
2023-04-19T19:38:27.541Z,6.77
2023-04-19T19:41:34.745Z,6.81
2023-04-19T19:43:39.950Z,7.01
2023-04-19T19:46:08.083Z,7.04
2023-04-19T19:48:40.736Z,7.15
2023-04-19T19:53:48.335Z,7.20
2023-04-19T19:56:21.440Z,7.21
2023-04-19T19:58:51.448Z,7.16
2023-04-19T20:01:18.613Z,7.27
2023-04-19T20:03:47.441Z,7.34
2023-04-19T20:06:45.280Z,7.32
2023-04-19T20:09:03.509Z,7.52
2023-04-19T20:11:29.996Z,7.46
2023-04-19T20:13:56.673Z,7.51
2023-04-19T20:16:22.931Z,7.57
2023-04-19T20:18:49.291Z,7.63
2023-04-19T20:21:16.631Z,7.59
2023-04-19T20:23:46.076Z,7.62
2023-04-19T20:26:13.834Z,7.63
2023-04-19T20:28:41.068Z,7.69
2023-04-19T20:31:11.546Z,7.70
2023-04-19T20:33:37.843Z,7.83
2023-04-19T20:36:06.444Z,7.81
2023-04-19T20:38:33.219Z,7.94
2023-04-19T20:41:04.765Z,7.97
2023-04-19T20:43:36.442Z,7.88
2023-04-19T20:46:02.739Z,7.92
2023-04-19T20:48:29.266Z,8.05
2023-04-19T20:51:03.103Z,8.04
2023-04-19T20:53:29.357Z,7.98
2023-04-19T20:55:55.552Z,7.81
2023-04-19T20:58:21.760Z,7.54
2023-04-19T21:00:48.853Z,7.40
2023-04-19T21:03:15.279Z,7.31
2023-04-19T21:05:41.741Z,7.31
2023-04-19T21:08:08.265Z,7.39
2023-04-19T21:10:34.502Z,7.30
2023-04-19T21:13:02.179Z,7.14
2023-04-19T21:15:28.435Z,7.20
2023-04-19T21:17:54.711Z,7.08
2023-04-19T21:20:21.015Z,7.04
2023-04-19T21:22:47.232Z,7.12
2023-04-19T21:25:13.513Z,7.17
2023-04-19T21:27:40.282Z,7.11
2023-04-19T21:30:09.502Z,7.04
2023-04-19T21:32:36.033Z,7.17
2023-04-19T21:35:06.562Z,7.22
2023-04-19T21:37:33.002Z,7.21
2023-04-19T21:40:01.547Z,7.26
2023-04-19T21:42:29.272Z,7.24
2023-04-19T21:44:55.504Z,7.23
2023-04-19T21:47:33.572Z,7.33
2023-04-19T21:50:00.090Z,7.17
2023-04-19T21:52:29.314Z,7.25
2023-04-19T21:54:55.918Z,7.21
2023-04-19T21:57:22.192Z,7.21
2023-04-19T21:59:48.802Z,7.21
2023-04-19T22:02:15.125Z,7.19
2023-04-19T22:04:41.546Z,7.21
2023-04-19T22:07:07.840Z,7.16
2023-04-19T22:09:35.494Z,7.11
2023-04-19T22:12:01.823Z,7.17
2023-04-19T22:14:28.224Z,7.11
2023-04-19T22:16:54.512Z,7.17
2023-04-19T22:19:20.834Z,7.19
2023-04-19T22:21:47.097Z,7.15
2023-04-19T22:24:15.123Z,7.15
2023-04-19T22:26:41.425Z,7.18
2023-04-19T22:29:07.661Z,7.13
2023-04-19T22:31:33.922Z,7.11
2023-04-19T22:34:00.645Z,7.13
2023-04-19T22:36:26.861Z,7.07
2023-04-19T22:38:53.106Z,7.11
2023-04-19T22:41:19.329Z,7.08
2023-04-19T22:43:45.568Z,7.08
2023-04-19T22:46:12.541Z,7.03
2023-04-19T22:48:43.253Z,7.01
2023-04-19T22:51:16.939Z,6.91
2023-04-19T22:53:43.496Z,6.94
2023-04-19T22:56:11.114Z,6.94
2023-04-19T22:58:38.453Z,6.98
2023-04-19T23:01:05.896Z,6.89
2023-04-19T23:03:35.389Z,6.83
2023-04-19T23:06:16.449Z,6.92
2023-04-19T23:08:54.326Z,6.91
2023-04-19T23:11:20.703Z,6.86
2023-04-19T23:13:47.000Z,6.83
2023-04-19T23:16:20.315Z,6.76
2023-04-19T23:19:07.318Z,6.78
2023-04-19T23:21:42.872Z,6.75
2023-04-19T23:24:09.287Z,6.76
2023-04-19T23:26:35.535Z,6.70
2023-04-19T23:29:01.839Z,6.69
2023-04-19T23:31:40.431Z,6.54
2023-04-19T23:34:06.980Z,6.55
2023-04-19T23:36:34.537Z,6.58
2023-04-19T23:39:04.129Z,6.50
2023-04-19T23:41:36.106Z,6.52
2023-04-19T23:44:03.694Z,6.37
2023-04-19T23:46:29.947Z,6.30
2023-04-19T23:48:56.235Z,6.34
2023-04-19T23:51:22.474Z,6.33
2023-04-19T23:53:52.080Z,6.35
2023-04-19T23:56:18.275Z,6.29
2023-04-19T23:58:44.479Z,6.32
